Airfield :
LOGIN :

Register | Disclaimer

   EN    FR    IT 

 










Legend :    VFR   Marginal VFR   IFR   Intensive IFR   Very Intensive IFR
Visi :
Ceiling :
>= 8 km
>= 3000ft
5 to 8 km
1000 to 3000 ft
1500m to 5 km
500 to 1000 ft
800 to 1500m
200 to 500 ft
< 800m
< 200 ft
Symbols :   Thunderstorms  Fog  Heavy snow  Heavy precipitations  Wind > 20 kt
SIGMETs :     Misc.  Thunderstorms  Icing  Turbulence  Mountain Waves  Volcanic Ashes






- Airport Elevation : 278 ft
- IATA code : RJK


LDRI - Rijeka

CURRENT METAR :
  • 280830Z 28006KT 240V310 9999 FEW050 19/09 Q1024

EXPIRED METARs :
  • 280800Z 24007KT 200V270 9999 FEW050 18/07 Q1025
  • 280730Z 23005KT 160V310 9999 FEW050 18/09 Q1025
  • 280700Z VRB02KT 9999 FEW050 20/07 Q1025
  • 280630Z VRB02KT 9999 FEW050 18/08 Q1025
  • 280600Z 29005KT 250V330 9999 FEW050 17/08 Q1025

TAF TAF LDRI
Valid from the 28 at 06:00 until the 29 at 06:00 UTC


280525Z 2806/2906 33005KT 9999 FEW050 TX23/2813Z TN14/2903Z
BECMG 2808/2810 28009KT
BECMG 2817/2819 04012KT
PROB30
TEMPO 2817/2821 34015G25KT TSRA FEW040CB SCT050
TEMPO 2821/2906 VRB10KT
PROB40
TEMPO 2821/2906 04015G25KT



MET'MAP, your aeronautical weather chart ! - Copyright ORBIFLY December 2007 - Disclaimer

ORBIFLY MET'MAP TEAM :

Programming & Development : Alexandra Zaïnal
Concept & original design : Baudouin d'Aumeries
Assistance for programming : Marc-Olivier Méhu
Technical & hardware support : Manuel Goepfert

Contact : metmap@orbifly.com




SOURCES & CREDITS :

   NOAA